sensor_id;sensor_type;location;lat;lon;timestamp;pressure;altitude;pressure_sealevel;temperature;humidity
31183;BME280;17813;0.000;0.000;2023-05-21T00:02:16;99488.66;;;14.54;74.24
31183;BME280;17813;0.000;0.000;2023-05-21T00:04:45;99488.91;;;14.51;74.31
31183;BME280;17813;0.000;0.000;2023-05-21T00:07:12;99490.97;;;14.47;74.07
31183;BME280;17813;0.000;0.000;2023-05-21T00:09:41;99486.84;;;14.43;74.26
31183;BME280;17813;0.000;0.000;2023-05-21T00:12:08;99484.50;;;14.39;74.53
31183;BME280;17813;0.000;0.000;2023-05-21T00:14:36;99486.03;;;14.30;74.80
31183;BME280;17813;0.000;0.000;2023-05-21T00:17:04;99477.81;;;14.33;74.85
31183;BME280;17813;0.000;0.000;2023-05-21T00:19:31;99471.63;;;14.33;74.87
31183;BME280;17813;0.000;0.000;2023-05-21T00:21:59;99471.75;;;14.31;74.63
31183;BME280;17813;0.000;0.000;2023-05-21T00:24:30;99467.84;;;14.24;74.71
31183;BME280;17813;0.000;0.000;2023-05-21T00:26:58;99470.50;;;14.24;75.13
31183;BME280;17813;0.000;0.000;2023-05-21T00:29:25;99469.16;;;14.19;75.60
31183;BME280;17813;0.000;0.000;2023-05-21T00:31:53;99472.91;;;14.16;75.37
31183;BME280;17813;0.000;0.000;2023-05-21T00:34:22;99465.03;;;14.14;75.33
31183;BME280;17813;0.000;0.000;2023-05-21T00:36:50;99473.16;;;14.13;75.64
31183;BME280;17813;0.000;0.000;2023-05-21T00:39:20;99475.94;;;14.11;75.41
31183;BME280;17813;0.000;0.000;2023-05-21T00:41:48;99460.28;;;14.07;75.31
31183;BME280;17813;0.000;0.000;2023-05-21T00:44:17;99471.91;;;14.06;75.98
31183;BME280;17813;0.000;0.000;2023-05-21T00:46:45;99466.94;;;14.01;76.07
31183;BME280;17813;0.000;0.000;2023-05-21T00:49:15;99461.72;;;14.00;75.93
31183;BME280;17813;0.000;0.000;2023-05-21T00:51:43;99466.31;;;13.98;75.84
31183;BME280;17813;0.000;0.000;2023-05-21T00:54:13;99464.84;;;13.94;75.58
31183;BME280;17813;0.000;0.000;2023-05-21T00:56:41;99468.59;;;13.91;75.85
31183;BME280;17813;0.000;0.000;2023-05-21T00:59:09;99465.19;;;13.89;75.90
31183;BME280;17813;0.000;0.000;2023-05-21T01:01:44;99469.06;;;13.85;76.22
31183;BME280;17813;0.000;0.000;2023-05-21T01:04:12;99466.50;;;13.83;75.90
31183;BME280;17813;0.000;0.000;2023-05-21T01:06:40;99464.69;;;13.84;75.93
31183;BME280;17813;0.000;0.000;2023-05-21T01:09:09;99462.16;;;13.82;76.07
31183;BME280;17813;0.000;0.000;2023-05-21T01:11:43;99460.78;;;13.77;76.00
31183;BME280;17813;0.000;0.000;2023-05-21T01:14:14;99459.22;;;13.74;76.40
31183;BME280;17813;0.000;0.000;2023-05-21T01:16:45;99458.81;;;13.68;76.53
31183;BME280;17813;0.000;0.000;2023-05-21T01:19:20;99452.63;;;13.67;76.57
31183;BME280;17813;0.000;0.000;2023-05-21T01:21:55;99458.41;;;13.61;76.74
31183;BME280;17813;0.000;0.000;2023-05-21T01:24:23;99456.72;;;13.60;76.60
31183;BME280;17813;0.000;0.000;2023-05-21T01:26:50;99458.88;;;13.55;76.87
31183;BME280;17813;0.000;0.000;2023-05-21T01:29:18;99454.75;;;13.51;77.05
31183;BME280;17813;0.000;0.000;2023-05-21T01:39:59;99445.44;;;13.33;77.27
31183;BME280;17813;0.000;0.000;2023-05-21T01:42:31;99450.25;;;13.28;77.64
31183;BME280;17813;0.000;0.000;2023-05-21T01:45:01;99438.97;;;13.24;77.70
31183;BME280;17813;0.000;0.000;2023-05-21T01:47:34;99447.19;;;13.21;77.78
31183;BME280;17813;0.000;0.000;2023-05-21T01:50:04;99439.09;;;13.23;77.90
31183;BME280;17813;0.000;0.000;2023-05-21T01:52:32;99435.25;;;13.27;77.67
31183;BME280;17813;0.000;0.000;2023-05-21T01:55:00;99432.59;;;13.27;77.68
31183;BME280;17813;0.000;0.000;2023-05-21T01:57:28;99436.09;;;13.27;77.41
31183;BME280;17813;0.000;0.000;2023-05-21T01:59:57;99431.84;;;13.25;77.40
31183;BME280;17813;0.000;0.000;2023-05-21T02:02:25;99439.09;;;13.23;77.64
31183;BME280;17813;0.000;0.000;2023-05-21T02:04:56;99434.84;;;13.20;77.59
31183;BME280;17813;0.000;0.000;2023-05-21T02:07:23;99433.88;;;13.21;77.67
31183;BME280;17813;0.000;0.000;2023-05-21T02:09:51;99432.06;;;13.22;77.61
31183;BME280;17813;0.000;0.000;2023-05-21T02:12:19;99427.81;;;13.19;77.59
31183;BME280;17813;0.000;0.000;2023-05-21T02:14:47;99434.28;;;13.15;77.55
31183;BME280;17813;0.000;0.000;2023-05-21T02:17:19;99429.19;;;13.12;77.81
31183;BME280;17813;0.000;0.000;2023-05-21T05:22:19;99455.25;;;13.56;79.57
31183;BME280;17813;0.000;0.000;2023-05-21T05:24:47;99454.00;;;13.73;79.33
31183;BME280;17813;0.000;0.000;2023-05-21T05:27:14;99447.41;;;14.01;78.54
31183;BME280;17813;0.000;0.000;2023-05-21T05:29:41;99451.25;;;14.32;77.28
31183;BME280;17813;0.000;0.000;2023-05-21T05:32:08;99444.75;;;14.47;76.67
31183;BME280;17813;0.000;0.000;2023-05-21T05:34:36;99448.03;;;14.62;76.41
31183;BME280;17813;0.000;0.000;2023-05-21T05:37:03;99444.03;;;14.78;76.16
31183;BME280;17813;0.000;0.000;2023-05-21T05:39:30;99440.63;;;14.88;75.34
31183;BME280;17813;0.000;0.000;2023-05-21T05:41:57;99440.75;;;14.75;74.92
31183;BME280;17813;0.000;0.000;2023-05-21T05:44:24;99448.63;;;14.88;75.34
31183;BME280;17813;0.000;0.000;2023-05-21T05:46:51;99445.44;;;15.16;75.29
31183;BME280;17813;0.000;0.000;2023-05-21T05:49:18;99450.94;;;15.58;74.25
31183;BME280;17813;0.000;0.000;2023-05-21T05:51:45;99438.06;;;15.95;72.52
31183;BME280;17813;0.000;0.000;2023-05-21T05:54:11;99438.31;;;16.85;71.44
31183;BME280;17813;0.000;0.000;2023-05-21T05:56:39;99433.69;;;17.65;69.31
31183;BME280;17813;0.000;0.000;2023-05-21T05:59:06;99423.44;;;18.66;67.09
31183;BME280;17813;0.000;0.000;2023-05-21T06:01:33;99430.06;;;19.44;64.27
31183;BME280;17813;0.000;0.000;2023-05-21T06:03:59;99438.50;;;19.58;62.34
31183;BME280;17813;0.000;0.000;2023-05-21T06:06:26;99428.28;;;20.23;61.96
31183;BME280;17813;0.000;0.000;2023-05-21T06:08:54;99423.91;;;21.00;59.99
31183;BME280;17813;0.000;0.000;2023-05-21T06:11:21;99415.56;;;22.02;57.34
31183;BME280;17813;0.000;0.000;2023-05-21T06:13:48;99416.91;;;22.94;55.11
31183;BME280;17813;0.000;0.000;2023-05-21T06:16:15;99421.50;;;23.87;53.02
31183;BME280;17813;0.000;0.000;2023-05-21T06:18:42;99405.06;;;24.63;51.36
31183;BME280;17813;0.000;0.000;2023-05-21T08:22:12;99337.72;;;34.30;30.08
31183;BME280;17813;0.000;0.000;2023-05-21T08:24:43;99331.75;;;34.93;28.64
31183;BME280;17813;0.000;0.000;2023-05-21T08:27:10;99337.34;;;35.74;28.76
31183;BME280;17813;0.000;0.000;2023-05-21T08:29:37;99336.06;;;36.19;27.66
31183;BME280;17813;0.000;0.000;2023-05-21T08:32:04;99337.41;;;35.30;27.75
31183;BME280;17813;0.000;0.000;2023-05-21T08:34:32;99338.34;;;35.14;27.33
31183;BME280;17813;0.000;0.000;2023-05-21T08:36:59;99331.13;;;34.86;28.54
31183;BME280;17813;0.000;0.000;2023-05-21T08:39:27;99332.72;;;34.10;29.08
31183;BME280;17813;0.000;0.000;2023-05-21T08:42:01;99337.91;;;34.40;29.47
31183;BME280;17813;0.000;0.000;2023-05-21T08:44:31;99332.41;;;33.90;28.70
31183;BME280;17813;0.000;0.000;2023-05-21T08:47:02;99319.25;;;33.63;29.19
31183;BME280;17813;0.000;0.000;2023-05-21T08:49:34;99323.56;;;33.88;29.79
31183;BME280;17813;0.000;0.000;2023-05-21T08:52:02;99313.81;;;33.97;29.11
31183;BME280;17813;0.000;0.000;2023-05-21T08:54:30;99310.84;;;34.75;29.04
31183;BME280;17813;0.000;0.000;2023-05-21T08:56:59;99321.75;;;35.58;29.29
31183;BME280;17813;0.000;0.000;2023-05-21T08:59:27;99314.38;;;36.32;28.68
31183;BME280;17813;0.000;0.000;2023-05-21T09:01:58;99306.84;;;36.60;27.78
31183;BME280;17813;0.000;0.000;2023-05-21T09:04:26;99312.75;;;36.79;27.27
31183;BME280;17813;0.000;0.000;2023-05-21T09:06:54;99305.34;;;36.89;27.66
31183;BME280;17813;0.000;0.000;2023-05-21T09:09:42;99312.81;;;36.42;29.12
31183;BME280;17813;0.000;0.000;2023-05-21T09:12:13;99306.06;;;36.69;28.06
31183;BME280;17813;0.000;0.000;2023-05-21T09:14:41;99301.06;;;36.66;26.92
31183;BME280;17813;0.000;0.000;2023-05-21T09:17:11;99309.34;;;36.24;27.07
31183;BME280;17813;0.000;0.000;2023-05-21T09:20:09;99305.41;;;36.15;27.17
31183;BME280;17813;0.000;0.000;2023-05-21T09:25:51;99303.28;;;36.27;28.06
31183;BME280;17813;0.000;0.000;2023-05-21T09:28:19;99307.53;;;36.40;28.12
31183;BME280;17813;0.000;0.000;2023-05-21T09:30:52;99306.84;;;35.86;28.40
31183;BME280;17813;0.000;0.000;2023-05-21T09:33:27;99307.69;;;35.86;27.98
31183;BME280;17813;0.000;0.000;2023-05-21T09:35:57;99307.03;;;36.43;28.36
31183;BME280;17813;0.000;0.000;2023-05-21T09:38:24;99297.66;;;37.07;26.83
31183;BME280;17813;0.000;0.000;2023-05-21T09:40:54;99293.56;;;36.57;27.95
31183;BME280;17813;0.000;0.000;2023-05-21T09:43:23;99291.53;;;36.94;26.99
31183;BME280;17813;0.000;0.000;2023-05-21T09:45:55;99284.34;;;36.93;26.67
31183;BME280;17813;0.000;0.000;2023-05-21T09:51:12;99283.00;;;37.06;25.42
31183;BME280;17813;0.000;0.000;2023-05-21T09:53:58;99282.97;;;36.96;21.86
31183;BME280;17813;0.000;0.000;2023-05-21T09:56:26;99280.13;;;36.28;23.11
31183;BME280;17813;0.000;0.000;2023-05-21T09:58:57;99284.09;;;35.73;22.88
31183;BME280;17813;0.000;0.000;2023-05-21T10:01:26;99286.69;;;35.04;24.51
31183;BME280;17813;0.000;0.000;2023-05-21T10:03:55;99283.09;;;34.60;22.82
31183;BME280;17813;0.000;0.000;2023-05-21T10:06:30;99285.78;;;34.33;23.66
31183;BME280;17813;0.000;0.000;2023-05-21T10:09:01;99280.97;;;33.45;22.98
31183;BME280;17813;0.000;0.000;2023-05-21T10:11:44;99284.31;;;33.18;24.68
31183;BME280;17813;0.000;0.000;2023-05-21T10:14:20;99281.66;;;32.95;24.11
31183;BME280;17813;0.000;0.000;2023-05-21T10:16:49;99278.25;;;32.76;25.30
31183;BME280;17813;0.000;0.000;2023-05-21T10:19:18;99276.63;;;32.52;26.43
31183;BME280;17813;0.000;0.000;2023-05-21T10:21:46;99282.72;;;31.95;27.06
31183;BME280;17813;0.000;0.000;2023-05-21T10:24:13;99281.41;;;32.10;28.06
31183;BME280;17813;0.000;0.000;2023-05-21T10:26:41;99279.88;;;31.90;27.93
31183;BME280;17813;0.000;0.000;2023-05-21T10:29:08;99282.50;;;31.44;29.04
31183;BME280;17813;0.000;0.000;2023-05-21T10:31:38;99276.56;;;31.47;27.79
31183;BME280;17813;0.000;0.000;2023-05-21T10:34:10;99280.59;;;31.44;28.01
31183;BME280;17813;0.000;0.000;2023-05-21T10:36:44;99273.84;;;31.58;27.67
31183;BME280;17813;0.000;0.000;2023-05-21T10:39:12;99265.19;;;31.73;27.89
31183;BME280;17813;0.000;0.000;2023-05-21T10:42:04;99250.91;;;31.29;27.66
31183;BME280;17813;0.000;0.000;2023-05-21T10:47:45;99256.97;;;31.31;29.25
31183;BME280;17813;0.000;0.000;2023-05-21T10:56:24;99253.50;;;31.06;28.34
31183;BME280;17813;0.000;0.000;2023-05-21T11:01:30;99258.38;;;29.94;28.94
31183;BME280;17813;0.000;0.000;2023-05-21T11:03:59;99258.28;;;30.26;28.36
31183;BME280;17813;0.000;0.000;2023-05-21T11:06:27;99250.75;;;30.21;27.50
31183;BME280;17813;0.000;0.000;2023-05-21T11:08:54;99263.91;;;29.88;27.56
31183;BME280;17813;0.000;0.000;2023-05-21T11:11:40;99259.22;;;29.70;28.52
31183;BME280;17813;0.000;0.000;2023-05-21T11:14:32;99250.97;;;29.52;27.96
31183;BME280;17813;0.000;0.000;2023-05-21T11:19:39;99253.28;;;29.98;27.32
31183;BME280;17813;0.000;0.000;2023-05-21T11:22:23;99245.78;;;29.68;26.95
31183;BME280;17813;0.000;0.000;2023-05-21T11:24:51;99244.66;;;29.76;27.97
31183;BME280;17813;0.000;0.000;2023-05-21T11:27:34;99250.59;;;30.16;28.19
31183;BME280;17813;0.000;0.000;2023-05-21T11:38:17;99246.25;;;30.08;25.33
31183;BME280;17813;0.000;0.000;2023-05-21T11:41:00;99244.22;;;30.04;25.03
31183;BME280;17813;0.000;0.000;2023-05-21T11:43:27;99245.34;;;30.15;25.50
31183;BME280;17813;0.000;0.000;2023-05-21T11:45:54;99247.34;;;30.26;25.76
31183;BME280;17813;0.000;0.000;2023-05-21T11:48:25;99249.69;;;30.04;24.85
31183;BME280;17813;0.000;0.000;2023-05-21T11:50:52;99245.34;;;29.71;25.88
31183;BME280;17813;0.000;0.000;2023-05-21T11:53:19;99244.75;;;29.88;26.46
31183;BME280;17813;0.000;0.000;2023-05-21T11:55:46;99248.28;;;29.95;25.28
31183;BME280;17813;0.000;0.000;2023-05-21T11:58:13;99246.78;;;29.49;24.54
31183;BME280;17813;0.000;0.000;2023-05-21T12:00:42;99246.38;;;29.14;23.96
31183;BME280;17813;0.000;0.000;2023-05-21T12:03:13;99232.81;;;29.32;25.20
31183;BME280;17813;0.000;0.000;2023-05-21T12:05:47;99223.50;;;29.40;25.26
31183;BME280;17813;0.000;0.000;2023-05-21T12:08:24;99234.41;;;29.47;26.17
31183;BME280;17813;0.000;0.000;2023-05-21T12:10:58;99240.47;;;29.49;25.40
31183;BME280;17813;0.000;0.000;2023-05-21T12:13:26;99242.22;;;29.36;24.55
31183;BME280;17813;0.000;0.000;2023-05-21T12:15:53;99237.00;;;29.35;25.51
31183;BME280;17813;0.000;0.000;2023-05-21T12:18:21;99229.81;;;29.40;26.92
31183;BME280;17813;0.000;0.000;2023-05-21T12:20:50;99230.16;;;29.51;26.29
31183;BME280;17813;0.000;0.000;2023-05-21T12:23:23;99226.72;;;29.62;26.82
31183;BME280;17813;0.000;0.000;2023-05-21T13:24:36;99208.31;;;28.88;27.36
31183;BME280;17813;0.000;0.000;2023-05-21T13:27:05;99208.28;;;28.94;27.50
31183;BME280;17813;0.000;0.000;2023-05-21T13:29:33;99207.84;;;28.97;26.80
31183;BME280;17813;0.000;0.000;2023-05-21T13:32:04;99198.13;;;29.08;27.43
31183;BME280;17813;0.000;0.000;2023-05-21T13:34:31;99197.72;;;29.04;27.21
31183;BME280;17813;0.000;0.000;2023-05-21T13:37:06;99199.44;;;28.99;27.42
31183;BME280;17813;0.000;0.000;2023-05-21T13:39:34;99197.31;;;29.01;26.03
31183;BME280;17813;0.000;0.000;2023-05-21T13:42:09;99205.78;;;28.93;26.27
31183;BME280;17813;0.000;0.000;2023-05-21T13:44:51;99195.56;;;28.75;26.57
31183;BME280;17813;0.000;0.000;2023-05-21T13:47:21;99202.44;;;28.91;27.12
31183;BME280;17813;0.000;0.000;2023-05-21T13:49:48;99207.22;;;28.95;27.07
31183;BME280;17813;0.000;0.000;2023-05-21T13:52:18;99202.44;;;28.91;28.35
31183;BME280;17813;0.000;0.000;2023-05-21T13:54:45;99214.22;;;29.16;27.72
31183;BME280;17813;0.000;0.000;2023-05-21T13:57:13;99193.84;;;29.19;27.50
31183;BME280;17813;0.000;0.000;2023-05-21T13:59:40;99199.28;;;29.19;28.37
31183;BME280;17813;0.000;0.000;2023-05-21T14:02:08;99204.09;;;29.23;28.75
31183;BME280;17813;0.000;0.000;2023-05-21T14:04:36;99197.22;;;29.14;28.97
31183;BME280;17813;0.000;0.000;2023-05-21T14:07:11;99201.59;;;28.90;28.21
31183;BME280;17813;0.000;0.000;2023-05-21T14:09:39;99202.47;;;28.77;29.83
31183;BME280;17813;0.000;0.000;2023-05-21T14:12:06;99210.22;;;28.80;29.47
31183;BME280;17813;0.000;0.000;2023-05-21T14:14:33;99206.25;;;28.83;28.79
31183;BME280;17813;0.000;0.000;2023-05-21T14:17:01;99205.25;;;28.71;28.61
31183;BME280;17813;0.000;0.000;2023-05-21T14:19:29;99203.78;;;28.68;29.09
31183;BME280;17813;0.000;0.000;2023-05-21T14:21:56;99197.72;;;28.60;28.30
31183;BME280;17813;0.000;0.000;2023-05-21T14:24:23;99191.06;;;28.49;28.21
31183;BME280;17813;0.000;0.000;2023-05-21T14:26:52;99202.38;;;28.53;28.12
31183;BME280;17813;0.000;0.000;2023-05-21T14:29:20;99199.69;;;28.39;28.74
31183;BME280;17813;0.000;0.000;2023-05-21T14:31:47;99207.28;;;28.31;29.23
31183;BME280;17813;0.000;0.000;2023-05-21T14:34:14;99202.03;;;28.29;29.40
31183;BME280;17813;0.000;0.000;2023-05-21T14:36:42;99199.31;;;28.29;30.22
31183;BME280;17813;0.000;0.000;2023-05-21T14:39:13;99199.09;;;28.31;29.35
31183;BME280;17813;0.000;0.000;2023-05-21T14:41:41;99201.16;;;28.42;29.66
31183;BME280;17813;0.000;0.000;2023-05-21T14:44:08;99198.44;;;28.42;29.46
31183;BME280;17813;0.000;0.000;2023-05-21T14:46:36;99198.84;;;28.39;29.98
31183;BME280;17813;0.000;0.000;2023-05-21T14:49:03;99188.81;;;28.33;29.70
31183;BME280;17813;0.000;0.000;2023-05-21T14:51:30;99196.41;;;28.24;29.54
31183;BME280;17813;0.000;0.000;2023-05-21T14:53:57;99195.56;;;28.17;28.96
31183;BME280;17813;0.000;0.000;2023-05-21T14:56:27;99192.63;;;28.25;29.47
31183;BME280;17813;0.000;0.000;2023-05-21T14:58:54;99193.84;;;28.36;29.21
31183;BME280;17813;0.000;0.000;2023-05-21T15:01:22;99201.13;;;28.48;29.16
31183;BME280;17813;0.000;0.000;2023-05-21T15:03:49;99192.94;;;28.48;28.14
31183;BME280;17813;0.000;0.000;2023-05-21T15:06:16;99194.84;;;28.48;29.89
31183;BME280;17813;0.000;0.000;2023-05-21T15:08:43;99191.13;;;28.36;30.44
31183;BME280;17813;0.000;0.000;2023-05-21T15:11:11;99194.47;;;28.31;30.56
31183;BME280;17813;0.000;0.000;2023-05-21T15:13:39;99192.81;;;28.30;30.22
31183;BME280;17813;0.000;0.000;2023-05-21T15:16:06;99189.69;;;28.27;30.58
31183;BME280;17813;0.000;0.000;2023-05-21T15:18:35;99187.75;;;28.34;29.95
31183;BME280;17813;0.000;0.000;2023-05-21T15:21:03;99183.94;;;28.41;30.43
31183;BME280;17813;0.000;0.000;2023-05-21T15:23:32;99190.44;;;28.47;30.11
31183;BME280;17813;0.000;0.000;2023-05-21T16:25:05;99165.91;;;27.69;37.08
31183;BME280;17813;0.000;0.000;2023-05-21T16:27:32;99155.84;;;27.57;36.80
31183;BME280;17813;0.000;0.000;2023-05-21T16:30:00;99171.78;;;27.46;37.42
31183;BME280;17813;0.000;0.000;2023-05-21T16:32:28;99172.41;;;27.29;38.26
31183;BME280;17813;0.000;0.000;2023-05-21T16:34:56;99170.72;;;27.14;38.82
31183;BME280;17813;0.000;0.000;2023-05-21T16:37:23;99171.53;;;26.95;38.69
31183;BME280;17813;0.000;0.000;2023-05-21T16:39:50;99165.44;;;26.86;39.83
31183;BME280;17813;0.000;0.000;2023-05-21T16:42:17;99162.69;;;26.73;39.67
31183;BME280;17813;0.000;0.000;2023-05-21T16:44:44;99167.94;;;26.75;39.36
31183;BME280;17813;0.000;0.000;2023-05-21T16:47:11;99170.22;;;26.71;39.62
31183;BME280;17813;0.000;0.000;2023-05-21T16:49:39;99171.91;;;26.72;40.23
31183;BME280;17813;0.000;0.000;2023-05-21T16:52:06;99161.66;;;26.81;39.62
31183;BME280;17813;0.000;0.000;2023-05-21T16:54:36;99157.91;;;26.82;39.97
31183;BME280;17813;0.000;0.000;2023-05-21T16:57:03;99162.91;;;26.72;39.91
31183;BME280;17813;0.000;0.000;2023-05-21T16:59:31;99164.16;;;26.76;39.81
31183;BME280;17813;0.000;0.000;2023-05-21T17:02:01;99170.44;;;26.70;39.60
31183;BME280;17813;0.000;0.000;2023-05-21T17:04:35;99172.25;;;26.49;40.43
31183;BME280;17813;0.000;0.000;2023-05-21T17:07:02;99177.03;;;26.41;40.60
31183;BME280;17813;0.000;0.000;2023-05-21T17:09:28;99177.38;;;26.31;40.95
31183;BME280;17813;0.000;0.000;2023-05-21T17:11:56;99169.38;;;26.16;41.42
31183;BME280;17813;0.000;0.000;2023-05-21T17:14:22;99173.50;;;26.06;41.73
31183;BME280;17813;0.000;0.000;2023-05-21T17:16:50;99169.88;;;25.99;41.96
31183;BME280;17813;0.000;0.000;2023-05-21T17:19:16;99166.63;;;25.75;43.10
31183;BME280;17813;0.000;0.000;2023-05-21T17:21:43;99169.75;;;25.72;43.41
31183;BME280;17813;0.000;0.000;2023-05-21T17:24:13;99173.25;;;25.66;43.29
31183;BME280;17813;0.000;0.000;2023-05-21T18:25:24;99194.94;;;23.94;47.88
31183;BME280;17813;0.000;0.000;2023-05-21T18:27:50;99195.03;;;23.86;48.05
31183;BME280;17813;0.000;0.000;2023-05-21T18:30:17;99202.59;;;23.76;48.32
31183;BME280;17813;0.000;0.000;2023-05-21T18:32:45;99202.88;;;23.66;48.49
31183;BME280;17813;0.000;0.000;2023-05-21T18:35:12;99205.34;;;23.53;48.90
31183;BME280;17813;0.000;0.000;2023-05-21T18:37:39;99199.28;;;23.51;49.02
31183;BME280;17813;0.000;0.000;2023-05-21T18:40:10;99210.22;;;23.57;48.51
31183;BME280;17813;0.000;0.000;2023-05-21T18:42:37;99208.75;;;23.55;48.88
31183;BME280;17813;0.000;0.000;2023-05-21T18:45:08;99214.75;;;23.42;48.98
31183;BME280;17813;0.000;0.000;2023-05-21T18:47:36;99218.09;;;23.44;48.96
31183;BME280;17813;0.000;0.000;2023-05-21T18:50:12;99212.91;;;23.34;49.32
31183;BME280;17813;0.000;0.000;2023-05-21T18:52:40;99216.19;;;23.30;49.40
31183;BME280;17813;0.000;0.000;2023-05-21T18:55:07;99220.69;;;23.15;49.90
31183;BME280;17813;0.000;0.000;2023-05-21T18:57:34;99216.91;;;23.01;50.47
31183;BME280;17813;0.000;0.000;2023-05-21T19:00:01;99222.88;;;22.96;50.35
31183;BME280;17813;0.000;0.000;2023-05-21T19:02:29;99222.19;;;22.94;50.33
31183;BME280;17813;0.000;0.000;2023-05-21T19:04:56;99224.44;;;22.91;50.66
31183;BME280;17813;0.000;0.000;2023-05-21T19:07:23;99226.66;;;22.87;50.39
31183;BME280;17813;0.000;0.000;2023-05-21T19:09:50;99242.38;;;22.84;50.54
31183;BME280;17813;0.000;0.000;2023-05-21T19:12:18;99232.13;;;22.71;51.20
31183;BME280;17813;0.000;0.000;2023-05-21T19:14:45;99237.03;;;22.67;51.18
31183;BME280;17813;0.000;0.000;2023-05-21T19:17:12;99239.94;;;22.66;51.03
31183;BME280;17813;0.000;0.000;2023-05-21T19:19:40;99240.63;;;22.60;51.37
31183;BME280;17813;0.000;0.000;2023-05-21T19:22:10;99241.34;;;22.54;51.58
31183;BME280;17813;0.000;0.000;2023-05-21T19:24:37;99242.72;;;22.50;51.87
31183;BME280;17813;0.000;0.000;2023-05-21T19:27:07;99235.84;;;22.39;52.24
31183;BME280;17813;0.000;0.000;2023-05-21T19:29:37;99245.00;;;22.30;52.35
31183;BME280;17813;0.000;0.000;2023-05-21T19:32:07;99244.81;;;22.31;52.07
31183;BME280;17813;0.000;0.000;2023-05-21T19:34:35;99252.78;;;22.25;52.33
31183;BME280;17813;0.000;0.000;2023-05-21T19:37:03;99250.44;;;22.22;52.37
31183;BME280;17813;0.000;0.000;2023-05-21T19:39:39;99248.28;;;22.09;52.82
31183;BME280;17813;0.000;0.000;2023-05-21T19:42:07;99246.09;;;22.04;52.74
31183;BME280;17813;0.000;0.000;2023-05-21T19:44:38;99248.97;;;22.03;52.48
31183;BME280;17813;0.000;0.000;2023-05-21T19:47:06;99245.25;;;21.96;52.92
31183;BME280;17813;0.000;0.000;2023-05-21T19:49:34;99244.09;;;21.90;52.70
31183;BME280;17813;0.000;0.000;2023-05-21T19:52:00;99251.50;;;21.88;52.88
31183;BME280;17813;0.000;0.000;2023-05-21T19:54:28;99248.16;;;21.78;53.54
31183;BME280;17813;0.000;0.000;2023-05-21T19:56:55;99252.22;;;21.74;53.04
31183;BME280;17813;0.000;0.000;2023-05-21T19:59:22;99248.00;;;21.71;53.11
31183;BME280;17813;0.000;0.000;2023-05-21T20:01:49;99247.84;;;21.65;53.33
31183;BME280;17813;0.000;0.000;2023-05-21T20:04:16;99261.34;;;21.57;53.92
31183;BME280;17813;0.000;0.000;2023-05-21T20:06:43;99249.38;;;21.51;53.68
31183;BME280;17813;0.000;0.000;2023-05-21T20:09:10;99257.31;;;21.44;53.82
31183;BME280;17813;0.000;0.000;2023-05-21T20:11:38;99247.53;;;21.43;53.78
31183;BME280;17813;0.000;0.000;2023-05-21T20:14:09;99254.94;;;21.33;53.70
31183;BME280;17813;0.000;0.000;2023-05-21T20:16:38;99253.94;;;21.34;53.68
31183;BME280;17813;0.000;0.000;2023-05-21T20:19:04;99250.06;;;21.37;53.45
31183;BME280;17813;0.000;0.000;2023-05-21T20:21:31;99251.06;;;21.36;53.31
31183;BME280;17813;0.000;0.000;2023-05-21T20:23:58;99258.84;;;21.39;53.00
